Time;durP1;ratioP1;P1;durP2;ratioP2;P2;SDS_P1;SDS_P2;PMS_P1;PMS_P2;Temp;Humidity;BMP_temperature;BMP_pressure;BME280_temperature;BME280_humidity;BME280_pressure;Samples;Min_cycle;Max_cycle;Signal;HPM_P1;HPM_P2
2022/01/29 00:01:01;;;;;;;4.90;1.50;;;3.80;99.90;;;;;;5033379;28;20032;-64
2022/01/29 00:03:27;;;;;;;0.30;0.30;;;3.90;99.90;;;;;;5051681;28;20386;-64
2022/01/29 00:05:53;;;;;;;0.85;0.85;;;3.90;99.90;;;;;;5051577;28;20233;-64
2022/01/29 00:08:19;;;;;;;0.43;0.43;;;3.80;99.90;;;;;;5051839;28;20033;-64
2022/01/29 00:10:48;;;;;;;1.23;0.80;;;3.80;99.90;;;;;;5051316;28;20110;-65
2022/01/29 00:13:13;;;;;;;0.30;0.30;;;3.90;99.90;;;;;;5051263;28;20406;-62
2022/01/29 00:15:39;;;;;;;0.15;0.15;;;3.90;99.90;;;;;;5051523;28;20037;-62
2022/01/29 00:18:06;;;;;;;0.10;0.10;;;4.00;99.90;;;;;;5051436;28;20104;-63
2022/01/29 00:20:33;;;;;;;1.35;1.13;;;4.00;99.90;;;;;;5051420;28;20029;-63
2022/01/29 00:22:58;;;;;;;0.63;0.63;;;4.10;99.90;;;;;;5051241;28;20494;-62
2022/01/29 00:25:24;;;;;;;0.10;0.10;;;4.20;99.90;;;;;;5050048;28;20047;-63
2022/01/29 00:27:52;;;;;;;1.52;0.57;;;4.30;99.90;;;;;;5050952;28;20035;-63
2022/01/29 00:30:18;;;;;;;0.25;0.25;;;4.20;99.90;;;;;;5066840;28;20036;-63
2022/01/29 00:32:45;;;;;;;0.22;0.22;;;4.30;99.90;;;;;;5051010;28;20045;-64
2022/01/29 00:35:10;;;;;;;0.63;0.63;;;4.30;99.90;;;;;;5050351;28;20041;-64
2022/01/29 00:37:36;;;;;;;0.10;0.10;;;4.30;99.90;;;;;;5051303;28;20394;-64
2022/01/29 00:40:03;;;;;;;0.75;0.75;;;4.40;99.90;;;;;;5051464;28;20048;-64
2022/01/29 00:42:29;;;;;;;0.05;0.05;;;4.30;99.90;;;;;;5055367;28;20025;-64
2022/01/29 00:44:55;;;;;;;0.10;0.10;;;4.20;99.90;;;;;;5054963;28;20127;-64
2022/01/29 00:47:21;;;;;;;0.32;0.22;;;4.20;99.90;;;;;;5053837;28;20104;-64
2022/01/29 00:49:47;;;;;;;0.10;0.10;;;4.20;99.90;;;;;;5054962;28;20060;-64
2022/01/29 00:52:12;;;;;;;0.55;0.55;;;4.30;99.90;;;;;;5055244;28;20037;-64
2022/01/29 00:54:38;;;;;;;0.10;0.10;;;4.30;99.90;;;;;;5055023;28;20035;-64
2022/01/29 00:57:05;;;;;;;1.65;1.55;;;4.30;99.90;;;;;;5054999;28;20477;-64
2022/01/29 00:59:32;;;;;;;0.10;0.10;;;4.40;99.90;;;;;;5054776;28;20040;-64
2022/01/29 01:01:58;;;;;;;0.10;0.10;;;4.30;99.90;;;;;;5053629;28;20079;-64
2022/01/29 01:04:24;;;;;;;0.10;0.10;;;4.30;99.90;;;;;;5053651;28;20033;-64
2022/01/29 01:06:49;;;;;;;0.10;0.10;;;4.30;99.90;;;;;;5054860;28;20040;-64
2022/01/29 01:09:15;;;;;;;0.75;0.75;;;4.30;99.90;;;;;;5054949;28;20032;-64
2022/01/29 01:11:41;;;;;;;0.43;0.43;;;4.40;99.90;;;;;;5054898;28;20032;-64
2022/01/29 01:14:07;;;;;;;0.73;0.52;;;4.40;99.90;;;;;;5054747;28;20037;-64
2022/01/29 01:16:32;;;;;;;0.10;0.10;;;4.40;99.90;;;;;;5054795;28;20052;-64
2022/01/29 01:18:59;;;;;;;0.47;0.47;;;4.30;99.90;;;;;;5054556;28;20044;-64
2022/01/29 01:21:25;;;;;;;0.10;0.10;;;4.40;99.90;;;;;;5054833;28;20040;-63
2022/01/29 01:23:51;;;;;;;5.90;1.05;;;4.30;99.90;;;;;;5054523;28;20033;-63
2022/01/29 01:26:18;;;;;;;0.22;0.22;;;4.30;99.90;;;;;;5054709;28;20037;-63
2022/01/29 01:28:43;;;;;;;1.38;1.20;;;4.00;99.90;;;;;;5054452;28;20029;-64
2022/01/29 01:31:09;;;;;;;1.13;1.02;;;4.10;99.90;;;;;;5052857;28;20028;-63
2022/01/29 01:33:35;;;;;;;0.20;0.20;;;4.00;99.90;;;;;;5054065;28;20095;-63
2022/01/29 01:36:04;;;;;;;0.10;0.10;;;4.00;99.90;;;;;;5054362;28;20032;-63
2022/01/29 01:38:39;;;;;;;0.00;0.00;;;4.00;99.90;;;;;;5053017;28;20037;-63
2022/01/29 01:41:09;;;;;;;2.92;1.23;;;3.90;99.90;;;;;;5069624;28;20073;-63
2022/01/29 01:43:35;;;;;;;0.08;0.08;;;3.90;99.90;;;;;;5053966;28;20119;-63
2022/01/29 01:46:01;;;;;;;1.08;0.68;;;3.90;99.90;;;;;;5052891;28;20124;-63
2022/01/29 01:48:27;;;;;;;0.10;0.10;;;4.00;99.90;;;;;;5053750;28;20039;-63
2022/01/29 01:50:53;;;;;;;0.52;0.52;;;4.00;99.90;;;;;;5054026;28;20072;-63
2022/01/29 01:53:18;;;;;;;0.10;0.10;;;4.00;99.90;;;;;;5053111;28;20048;-64
2022/01/29 01:55:46;;;;;;;0.57;0.57;;;4.00;99.90;;;;;;5052557;28;20429;-64
2022/01/29 01:58:12;;;;;;;0.20;0.20;;;3.90;99.90;;;;;;5053678;28;20028;-63
2022/01/29 02:00:37;;;;;;;6.93;3.08;;;4.00;99.90;;;;;;5053775;28;20116;-63
2022/01/29 02:03:03;;;;;;;0.32;0.32;;;4.00;99.90;;;;;;5053698;28;20041;-64
2022/01/29 02:05:29;;;;;;;0.30;0.30;;;4.10;99.90;;;;;;5053859;28;20064;-63
2022/01/29 02:07:56;;;;;;;3.13;0.52;;;4.00;99.90;;;;;;5052636;28;20064;-63
2022/01/29 02:10:25;;;;;;;0.20;0.20;;;4.00;99.90;;;;;;5052653;28;20105;-63
2022/01/29 02:12:59;;;;;;;0.45;0.45;;;4.00;99.90;;;;;;5053262;28;20382;-63
2022/01/29 02:15:26;;;;;;;0.10;0.10;;;4.00;99.90;;;;;;5053668;28;20037;-63
2022/01/29 02:17:52;;;;;;;0.88;0.82;;;3.90;99.90;;;;;;5053495;28;20035;-63
2022/01/29 02:20:26;;;;;;;0.38;0.38;;;3.90;99.90;;;;;;5053535;28;20037;-63
2022/01/29 02:22:52;;;;;;;0.03;0.03;;;3.90;99.90;;;;;;5053556;28;20025;-63
2022/01/29 02:25:49;;;;;;;0.40;0.40;;;3.90;99.90;;;;;;5053102;28;20032;-63
2022/01/29 02:28:22;;;;;;;1.25;0.95;;;3.90;99.90;;;;;;5043819;28;20057;-63
2022/01/29 02:30:57;;;;;;;0.10;0.10;;;3.80;99.90;;;;;;5053142;28;20079;-63
2022/01/29 02:33:24;;;;;;;0.75;0.52;;;3.80;99.90;;;;;;5068191;28;20053;-63
2022/01/29 02:35:52;;;;;;;0.30;0.30;;;3.90;99.90;;;;;;5053204;28;20040;-64
2022/01/29 02:38:21;;;;;;;1.20;1.00;;;3.90;99.90;;;;;;5053303;28;20136;-63
2022/01/29 02:40:53;;;;;;;0.10;0.10;;;3.90;99.90;;;;;;5052670;28;20127;-63
2022/01/29 02:43:21;;;;;;;0.10;0.10;;;3.90;99.90;;;;;;5051606;28;20041;-63
2022/01/29 02:45:48;;;;;;;0.10;0.10;;;3.80;99.90;;;;;;5053129;28;20025;-63
2022/01/29 02:48:14;;;;;;;0.10;0.10;;;3.80;99.90;;;;;;5052951;28;20500;-64
2022/01/29 02:50:41;;;;;;;0.10;0.10;;;3.90;99.90;;;;;;5052770;28;20036;-63
2022/01/29 02:53:07;;;;;;;1.75;1.65;;;3.90;99.90;;;;;;5051240;28;20060;-63
2022/01/29 02:55:33;;;;;;;3.30;1.55;;;3.80;99.90;;;;;;5052929;28;20421;-64
2022/01/29 02:57:59;;;;;;;0.10;0.10;;;3.80;99.90;;;;;;5052769;28;20043;-64
2022/01/29 03:00:26;;;;;;;0.35;0.35;;;3.80;99.90;;;;;;5052460;28;20494;-64
2022/01/29 03:02:52;;;;;;;0.10;0.10;;;3.80;99.90;;;;;;5051178;28;20428;-64
2022/01/29 03:05:18;;;;;;;0.10;0.10;;;3.80;99.90;;;;;;5050923;28;20055;-64
2022/01/29 03:07:43;;;;;;;0.73;0.73;;;3.90;99.90;;;;;;5034393;28;20064;-64
2022/01/29 03:10:09;;;;;;;0.10;0.10;;;3.80;99.90;;;;;;5052265;28;20509;-64
2022/01/29 03:12:37;;;;;;;7.55;4.65;;;3.80;99.90;;;;;;5052617;28;20076;-64
2022/01/29 03:15:05;;;;;;;0.85;0.85;;;3.80;99.90;;;;;;5052146;28;20045;-64
2022/01/29 03:17:31;;;;;;;1.10;1.00;;;3.80;99.90;;;;;;5051198;28;20035;-64
2022/01/29 03:19:57;;;;;;;0.00;0.00;;;3.80;99.90;;;;;;5052067;28;20029;-64
2022/01/29 03:22:22;;;;;;;0.50;0.50;;;3.80;99.90;;;;;;5052416;28;20039;-64
2022/01/29 03:24:48;;;;;;;0.28;0.28;;;3.80;99.90;;;;;;5052519;28;20041;-64
2022/01/29 03:27:14;;;;;;;0.10;0.10;;;3.80;99.90;;;;;;5050838;28;20414;-64
2022/01/29 03:29:40;;;;;;;0.30;0.30;;;3.80;99.90;;;;;;5067516;28;20033;-64
2022/01/29 03:32:06;;;;;;;0.10;0.10;;;3.80;99.90;;;;;;5051797;28;20041;-63
2022/01/29 03:34:32;;;;;;;5.57;0.85;;;3.80;99.90;;;;;;5051764;28;20028;-64
2022/01/29 03:36:58;;;;;;;0.00;0.00;;;3.80;99.90;;;;;;5050638;28;20033;-64
2022/01/29 03:39:26;;;;;;;1.25;1.15;;;3.80;99.90;;;;;;5051649;28;20482;-64
2022/01/29 03:41:53;;;;;;;0.38;0.38;;;3.80;99.90;;;;;;5067367;28;20032;-63
2022/01/29 03:44:20;;;;;;;0.35;0.35;;;3.80;99.90;;;;;;5052127;28;20033;-63
2022/01/29 03:46:46;;;;;;;2.65;1.38;;;3.80;99.90;;;;;;5052099;28;20025;-63
2022/01/29 03:49:12;;;;;;;0.40;0.40;;;3.80;99.90;;;;;;5051970;28;20524;-63
2022/01/29 03:51:38;;;;;;;1.10;1.10;;;3.80;99.90;;;;;;5052066;28;20028;-63
2022/01/29 03:54:03;;;;;;;0.20;0.20;;;3.80;99.90;;;;;;5051535;28;20040;-63
2022/01/29 03:56:29;;;;;;;0.10;0.10;;;3.80;99.90;;;;;;5051983;28;20382;-63
2022/01/29 03:58:55;;;;;;;0.10;0.10;;;3.80;99.90;;;;;;5051480;28;20060;-63
2022/01/29 04:01:21;;;;;;;0.05;0.05;;;3.70;99.90;;;;;;5051691;28;20039;-63
2022/01/29 04:03:46;;;;;;;0.10;0.10;;;3.70;99.90;;;;;;5051854;28;20188;-63
2022/01/29 04:06:12;;;;;;;0.10;0.10;;;3.70;99.90;;;;;;5050440;28;20044;-63
2022/01/29 04:08:42;;;;;;;0.10;0.10;;;3.70;99.90;;;;;;5051742;28;20116;-63
2022/01/29 04:11:11;;;;;;;0.10;0.10;;;3.70;99.90;;;;;;5050392;28;20458;-63
2022/01/29 04:13:45;;;;;;;0.75;0.75;;;3.70;99.90;;;;;;5050130;28;20029;-63
2022/01/29 04:16:13;;;;;;;0.17;0.17;;;3.70;99.90;;;;;;5049724;28;20220;-63
2022/01/29 04:18:39;;;;;;;0.10;0.10;;;3.80;99.90;;;;;;5051415;28;20386;-63
2022/01/29 04:21:05;;;;;;;1.95;1.85;;;3.80;99.90;;;;;;5051367;28;20029;-63
2022/01/29 04:23:33;;;;;;;0.63;0.63;;;3.80;99.90;;;;;;5051498;28;20060;-63
2022/01/29 04:26:01;;;;;;;0.68;0.68;;;3.80;99.90;;;;;;5050299;28;20586;-63
2022/01/29 04:28:32;;;;;;;0.17;0.17;;;3.70;99.90;;;;;;5051506;28;20029;-64
2022/01/29 04:31:03;;;;;;;2.43;2.23;;;3.70;99.90;;;;;;5066729;28;20037;-63
2022/01/29 04:33:29;;;;;;;0.10;0.10;;;3.70;99.90;;;;;;5033924;28;20048;-64
2022/01/29 04:35:58;;;;;;;0.43;0.43;;;3.70;99.90;;;;;;5050139;28;20040;-63
2022/01/29 04:38:25;;;;;;;0.10;0.10;;;3.70;99.90;;;;;;5051229;28;20052;-63
2022/01/29 04:40:51;;;;;;;2.83;1.38;;;3.70;99.90;;;;;;5050334;28;20086;-63
2022/01/29 04:43:17;;;;;;;0.20;0.20;;;3.70;99.90;;;;;;5050860;28;20029;-64
2022/01/29 04:45:43;;;;;;;0.25;0.25;;;3.70;99.90;;;;;;5051204;28;20064;-63
2022/01/29 04:48:09;;;;;;;2.15;2.05;;;3.70;99.90;;;;;;5051385;28;20021;-64
2022/01/29 04:50:35;;;;;;;0.63;0.63;;;3.70;99.90;;;;;;5051197;28;20040;-63
2022/01/29 04:53:01;;;;;;;0.00;0.00;;;3.80;99.90;;;;;;5051373;28;20025;-63
2022/01/29 04:55:27;;;;;;;0.20;0.20;;;3.70;99.90;;;;;;5051465;28;20037;-64
2022/01/29 04:57:52;;;;;;;0.17;0.17;;;3.70;99.90;;;;;;5051401;28;20100;-63
2022/01/29 05:00:19;;;;;;;3.20;1.27;;;3.60;99.90;;;;;;5051089;28;20082;-64
2022/01/29 05:02:51;;;;;;;0.10;0.10;;;3.70;99.90;;;;;;5049625;28;20124;-63
2022/01/29 05:05:18;;;;;;;0.25;0.25;;;3.60;99.90;;;;;;5051176;28;20171;-63
2022/01/29 05:07:44;;;;;;;0.32;0.32;;;3.60;99.90;;;;;;5050145;28;20044;-63
2022/01/29 05:10:11;;;;;;;0.40;0.40;;;3.60;99.90;;;;;;5050634;28;20445;-63
2022/01/29 05:12:53;;;;;;;0.65;0.65;;;3.60;99.90;;;;;;5051216;28;20035;-63
2022/01/29 05:28:48;;;;;;;0.40;0.40;;;3.60;99.90;;;;;;5054000;28;20044;-64
2022/01/29 05:31:14;;;;;;;0.65;0.65;;;3.60;99.90;;;;;;5053064;28;20025;-63
2022/01/29 05:33:40;;;;;;;0.10;0.10;;;3.70;99.90;;;;;;5054093;28;20140;-64
2022/01/29 05:36:06;;;;;;;4.00;2.45;;;3.70;99.90;;;;;;5054065;28;20029;-64
2022/01/29 05:38:32;;;;;;;0.75;0.75;;;3.60;99.90;;;;;;5053236;28;20124;-64
2022/01/29 05:40:58;;;;;;;0.50;0.50;;;3.60;99.90;;;;;;5052769;28;20040;-64
2022/01/29 05:43:24;;;;;;;0.55;0.55;;;3.60;99.90;;;;;;5054314;28;20074;-64
2022/01/29 05:45:50;;;;;;;0.22;0.22;;;3.50;99.90;;;;;;5053952;28;20047;-64
2022/01/29 05:48:16;;;;;;;0.52;0.52;;;3.50;99.90;;;;;;5054040;28;20036;-63
2022/01/29 05:50:41;;;;;;;0.10;0.10;;;3.50;99.90;;;;;;5054220;28;20033;-64
2022/01/29 05:53:07;;;;;;;2.05;1.17;;;3.50;99.90;;;;;;5052764;28;20033;-64
2022/01/29 05:55:33;;;;;;;0.10;0.10;;;3.50;99.90;;;;;;5054135;28;20129;-64
2022/01/29 05:57:59;;;;;;;0.10;0.10;;;3.50;99.90;;;;;;5052483;28;20057;-64
2022/01/29 06:00:24;;;;;;;0.10;0.10;;;3.60;99.90;;;;;;5052717;28;20162;-64
2022/01/29 06:03:08;;;;;;;0.38;0.38;;;3.50;99.90;;;;;;5052662;28;20048;-64
2022/01/29 06:05:35;;;;;;;0.10;0.10;;;3.50;99.90;;;;;;5053860;28;20032;-64
2022/01/29 06:08:01;;;;;;;0.30;0.30;;;3.50;99.90;;;;;;5052220;28;20029;-64
2022/01/29 06:10:27;;;;;;;2.05;1.95;;;3.50;99.90;;;;;;5053882;28;20032;-64
2022/01/29 06:13:05;;;;;;;0.45;0.45;;;3.50;99.90;;;;;;5053789;28;20086;-64
2022/01/29 06:15:39;;;;;;;0.40;0.40;;;3.50;99.90;;;;;;5052025;28;20470;-63
2022/01/29 06:18:05;;;;;;;0.10;0.10;;;3.50;99.90;;;;;;5053430;28;20095;-63
2022/01/29 06:20:32;;;;;;;1.90;1.75;;;3.50;99.90;;;;;;5053559;28;20108;-63
2022/01/29 06:22:58;;;;;;;0.20;0.20;;;3.40;99.90;;;;;;5053509;28;20033;-63
2022/01/29 06:25:24;;;;;;;1.65;1.40;;;3.40;99.90;;;;;;5053601;28;20040;-63
2022/01/29 06:27:51;;;;;;;0.10;0.10;;;3.40;99.90;;;;;;5052087;28;20516;-63
2022/01/29 06:30:17;;;;;;;2.40;1.27;;;3.40;99.90;;;;;;5051739;28;20033;-62
2022/01/29 06:32:43;;;;;;;0.10;0.10;;;3.40;99.90;;;;;;5051694;28;20713;-63
2022/01/29 06:35:11;;;;;;;0.10;0.10;;;3.40;99.90;;;;;;5053202;28;20143;-62
2022/01/29 06:37:36;;;;;;;0.52;0.52;;;3.40;99.90;;;;;;5052844;28;20033;-62
2022/01/29 06:40:04;;;;;;;0.20;0.20;;;3.40;99.90;;;;;;5052575;28;20037;-62
2022/01/29 06:42:30;;;;;;;0.10;0.10;;;3.40;99.90;;;;;;5071694;28;20083;-63
2022/01/29 06:44:56;;;;;;;0.30;0.30;;;3.30;99.90;;;;;;5071824;28;20048;-62
2022/01/29 06:47:22;;;;;;;0.10;0.10;;;3.30;99.90;;;;;;5065323;28;20028;-62
2022/01/29 06:49:48;;;;;;;0.10;0.10;;;3.30;99.90;;;;;;5068703;28;20102;-62
2022/01/29 06:52:14;;;;;;;0.10;0.10;;;3.30;99.90;;;;;;5072723;28;20470;-63
2022/01/29 06:54:40;;;;;;;0.50;0.50;;;3.30;99.90;;;;;;5088625;28;20392;-63
2022/01/29 06:57:06;;;;;;;0.10;0.10;;;3.30;99.90;;;;;;5072481;28;20082;-63
2022/01/29 06:59:31;;;;;;;0.10;0.10;;;3.30;99.90;;;;;;5072280;28;20078;-64
2022/01/29 07:01:57;;;;;;;0.10;0.10;;;3.30;99.90;;;;;;5072614;28;20037;-64
2022/01/29 07:04:23;;;;;;;0.30;0.30;;;3.30;99.90;;;;;;5071348;28;20136;-63
2022/01/29 07:06:49;;;;;;;0.10;0.10;;;3.30;99.90;;;;;;5072187;28;20048;-63
2022/01/29 07:09:14;;;;;;;1.02;1.02;;;3.30;99.90;;;;;;5072234;28;20029;-63
2022/01/29 07:11:44;;;;;;;0.85;0.85;;;3.30;99.90;;;;;;5088229;28;20424;-63
2022/01/29 07:14:17;;;;;;;1.08;1.05;;;3.30;99.90;;;;;;5072422;28;20481;-62
2022/01/29 07:16:43;;;;;;;0.10;0.10;;;3.30;99.90;;;;;;5071250;28;20371;-62
2022/01/29 07:19:10;;;;;;;0.17;0.17;;;3.30;99.90;;;;;;5071072;28;20485;-62
2022/01/29 07:21:37;;;;;;;0.10;0.10;;;3.30;99.90;;;;;;5072347;28;20036;-62
2022/01/29 07:24:03;;;;;;;0.10;0.10;;;3.30;99.90;;;;;;5072257;28;20064;-62
2022/01/29 07:26:29;;;;;;;1.77;1.65;;;3.30;99.90;;;;;;5072160;28;20389;-63
2022/01/29 07:28:55;;;;;;;0.90;0.90;;;3.30;99.90;;;;;;5072304;28;20025;-64
2022/01/29 07:31:21;;;;;;;0.35;0.35;;;3.30;99.90;;;;;;5070957;28;20032;-63
2022/01/29 07:33:47;;;;;;;0.10;0.10;;;3.30;99.90;;;;;;5071782;28;20135;-63
2022/01/29 07:36:13;;;;;;;0.10;0.10;;;3.30;99.90;;;;;;5072008;28;20128;-63
2022/01/29 07:38:39;;;;;;;0.10;0.10;;;3.30;99.90;;;;;;5070856;28;20029;-64
2022/01/29 07:41:04;;;;;;;0.20;0.20;;;3.30;99.90;;;;;;5071785;28;20036;-62
2022/01/29 07:43:30;;;;;;;0.30;0.30;;;3.30;99.90;;;;;;5070989;28;20028;-62
2022/01/29 07:45:56;;;;;;;1.10;1.10;;;3.30;99.90;;;;;;5071638;28;20393;-62
2022/01/29 07:48:23;;;;;;;0.70;0.63;;;3.30;99.90;;;;;;5071720;28;20380;-62
2022/01/29 07:50:50;;;;;;;0.10;0.10;;;3.30;99.90;;;;;;5070929;28;20482;-62
2022/01/29 07:53:16;;;;;;;0.10;0.10;;;3.30;99.90;;;;;;5071695;28;20036;-66
2022/01/29 07:55:42;;;;;;;0.52;0.52;;;3.30;99.90;;;;;;5069590;28;20046;-65
2022/01/29 07:58:09;;;;;;;0.20;0.20;;;3.30;99.90;;;;;;5053120;28;20087;-66
2022/01/29 08:00:35;;;;;;;0.20;0.20;;;3.40;99.90;;;;;;5071584;28;20028;-65
2022/01/29 08:03:01;;;;;;;0.10;0.10;;;3.50;99.90;;;;;;5064791;28;20021;-64
2022/01/29 08:05:26;;;;;;;0.90;0.90;;;3.50;99.90;;;;;;5051470;28;20056;-68
2022/01/29 08:07:52;;;;;;;0.10;0.10;;;3.40;99.90;;;;;;5051512;28;20095;-63
2022/01/29 08:10:18;;;;;;;0.20;0.20;;;3.40;99.90;;;;;;5051404;28;20127;-65
2022/01/29 08:12:47;;;;;;;1.17;1.08;;;3.40;99.90;;;;;;5050166;28;20036;-63
2022/01/29 08:15:13;;;;;;;0.13;0.13;;;3.40;99.90;;;;;;5051501;28;20040;-64
2022/01/29 08:17:39;;;;;;;0.20;0.20;;;3.50;99.90;;;;;;5051731;28;20025;-64
2022/01/29 08:20:05;;;;;;;0.10;0.10;;;3.50;99.90;;;;;;5051437;28;20075;-63
2022/01/29 08:22:31;;;;;;;1.17;1.17;;;3.50;99.90;;;;;;5051224;28;20124;-63
2022/01/29 08:24:57;;;;;;;0.10;0.10;;;3.50;99.90;;;;;;5051415;28;20115;-63
2022/01/29 08:27:23;;;;;;;0.40;0.40;;;3.50;99.90;;;;;;5051315;28;20033;-63
2022/01/29 08:29:49;;;;;;;0.20;0.20;;;3.50;99.90;;;;;;5051483;28;20040;-63
2022/01/29 08:32:15;;;;;;;0.10;0.10;;;3.60;99.90;;;;;;5049542;28;20041;-64
2022/01/29 08:34:43;;;;;;;0.68;0.68;;;3.50;99.90;;;;;;5051566;28;20082;-64
2022/01/29 08:37:09;;;;;;;0.75;0.75;;;3.60;99.90;;;;;;5050174;28;20047;-64
2022/01/29 08:39:35;;;;;;;0.17;0.17;;;3.60;99.90;;;;;;5051370;28;20036;-63
2022/01/29 08:42:01;;;;;;;0.10;0.10;;;3.60;99.90;;;;;;5051171;28;20029;-64
2022/01/29 08:44:27;;;;;;;0.28;0.28;;;3.60;99.90;;;;;;5051196;28;20040;-75
2022/01/29 08:46:53;;;;;;;0.10;0.10;;;3.60;99.90;;;;;;5049752;28;20589;-63
2022/01/29 08:49:19;;;;;;;0.10;0.10;;;3.60;99.90;;;;;;5051262;28;20539;-63
2022/01/29 08:51:45;;;;;;;0.95;0.95;;;3.70;99.90;;;;;;5059452;28;20520;-63
2022/01/29 08:54:11;;;;;;;0.10;0.10;;;3.70;99.90;;;;;;5050333;28;20068;-64
2022/01/29 08:56:36;;;;;;;0.10;0.10;;;3.80;99.90;;;;;;5074018;28;20085;-64
2022/01/29 08:59:02;;;;;;;0.10;0.10;;;3.80;99.90;;;;;;5058591;28;20062;-63
2022/01/29 09:01:28;;;;;;;0.00;0.00;;;3.80;99.90;;;;;;5056481;28;20037;-63
2022/01/29 09:03:55;;;;;;;0.10;0.10;;;3.80;99.90;;;;;;5054637;28;20033;-63
2022/01/29 09:06:21;;;;;;;0.90;0.90;;;3.80;99.90;;;;;;5066994;28;20508;-63
2022/01/29 09:08:50;;;;;;;0.40;0.40;;;3.70;99.90;;;;;;5075047;28;20028;-65
2022/01/29 09:11:18;;;;;;;0.30;0.30;;;3.80;99.90;;;;;;5074844;28;20032;-64
2022/01/29 09:13:44;;;;;;;2.28;1.75;;;3.80;99.90;;;;;;5071364;28;20037;-65
2022/01/29 09:16:11;;;;;;;1.75;1.00;;;3.90;99.90;;;;;;5072920;28;20036;-63
2022/01/29 09:18:37;;;;;;;3.15;1.38;;;3.90;99.90;;;;;;5073410;28;20117;-65
2022/01/29 09:21:04;;;;;;;0.10;0.10;;;4.00;99.90;;;;;;5074766;28;20143;-64
2022/01/29 09:23:30;;;;;;;1.08;0.90;;;4.00;99.90;;;;;;5065785;28;20029;-64
2022/01/29 09:25:55;;;;;;;0.10;0.10;;;4.00;99.90;;;;;;5067950;28;20167;-63
2022/01/29 09:28:22;;;;;;;0.50;0.43;;;4.00;99.90;;;;;;5065182;28;20097;-65
2022/01/29 09:30:49;;;;;;;0.10;0.10;;;4.00;99.90;;;;;;5071905;28;20033;-64
2022/01/29 09:33:16;;;;;;;0.10;0.10;;;4.00;99.90;;;;;;5074109;28;20558;-65
2022/01/29 09:35:43;;;;;;;0.13;0.13;;;4.00;99.90;;;;;;5074823;28;20043;-65
2022/01/29 09:38:11;;;;;;;0.10;0.10;;;4.00;99.90;;;;;;5073148;28;20021;-65
2022/01/29 09:40:40;;;;;;;0.50;0.50;;;4.00;99.90;;;;;;5074149;28;20037;-65
2022/01/29 09:43:09;;;;;;;0.10;0.10;;;4.00;99.90;;;;;;5073298;28;20104;-65
2022/01/29 09:45:36;;;;;;;1.85;1.25;;;4.00;99.90;;;;;;5070685;28;20547;-66
2022/01/29 09:48:03;;;;;;;0.20;0.20;;;4.00;99.90;;;;;;5068185;28;20090;-65
2022/01/29 09:50:38;;;;;;;0.20;0.20;;;4.00;99.90;;;;;;5072645;28;20028;-64
2022/01/29 09:53:06;;;;;;;0.10;0.10;;;4.00;99.90;;;;;;5064583;28;20071;-64
2022/01/29 09:55:33;;;;;;;0.40;0.30;;;4.00;99.90;;;;;;5059304;28;20044;-64
2022/01/29 09:57:59;;;;;;;0.22;0.22;;;4.00;99.90;;;;;;5072954;28;20082;-64
2022/01/29 10:00:26;;;;;;;0.10;0.10;;;4.10;99.90;;;;;;5070879;28;20083;-64
2022/01/29 10:03:09;;;;;;;0.70;0.57;;;4.10;99.90;;;;;;5074018;28;20033;-64
2022/01/29 10:05:58;;;;;;;0.10;0.10;;;4.10;99.90;;;;;;5070493;28;20132;-64
2022/01/29 10:08:24;;;;;;;1.55;0.98;;;4.00;99.90;;;;;;5073865;28;20037;-67
2022/01/29 10:10:54;;;;;;;2.13;1.27;;;4.10;99.90;;;;;;5060504;28;20470;-66
2022/01/29 10:13:37;;;;;;;0.85;0.85;;;4.10;99.90;;;;;;5053878;28;20029;-67
2022/01/29 10:16:09;;;;;;;2.72;0.93;;;4.10;99.90;;;;;;5053864;28;20059;-67
2022/01/29 10:18:37;;;;;;;0.10;0.10;;;4.00;99.90;;;;;;5052317;28;20059;-67
2022/01/29 10:21:25;;;;;;;1.65;0.90;;;4.00;99.90;;;;;;5020765;28;20067;-64
2022/01/29 10:24:06;;;;;;;0.65;0.65;;;4.00;99.90;;;;;;5047782;28;20130;-66
2022/01/29 10:26:37;;;;;;;0.20;0.20;;;3.90;99.90;;;;;;5028649;28;20029;-66
2022/01/29 10:29:07;;;;;;;0.10;0.10;;;4.00;99.90;;;;;;5031498;28;20046;-65
2022/01/29 10:31:43;;;;;;;0.50;0.50;;;3.80;99.90;;;;;;5032449;28;20284;-66
2022/01/29 10:34:21;;;;;;;0.15;0.15;;;3.80;99.90;;;;;;5030463;28;20037;-67
2022/01/29 10:37:12;;;;;;;0.47;0.47;;;3.80;99.90;;;;;;5028477;28;20053;-67
2022/01/29 10:39:38;;;;;;;1.48;0.75;;;3.70;99.90;;;;;;5030062;28;20033;-67
2022/01/29 10:42:29;;;;;;;1.05;1.05;;;3.70;99.90;;;;;;5030148;28;20033;-67
2022/01/29 10:45:04;;;;;;;0.15;0.15;;;3.70;99.90;;;;;;5030412;28;20037;-66
2022/01/29 10:47:50;;;;;;;9.75;1.65;;;3.70;99.90;;;;;;5044158;28;20034;-67
2022/01/29 10:50:16;;;;;;;0.10;0.10;;;3.70;99.90;;;;;;5031063;28;20099;-67
2022/01/29 10:52:42;;;;;;;1.55;1.45;;;3.60;99.90;;;;;;5032762;28;20018;-67
2022/01/29 10:55:09;;;;;;;0.60;0.60;;;3.60;99.90;;;;;;5033155;28;20041;-67
2022/01/29 10:57:40;;;;;;;0.10;0.10;;;3.60;99.90;;;;;;5032986;28;20480;-67
2022/01/29 11:00:21;;;;;;;7.47;1.55;;;3.70;99.90;;;;;;5047762;28;20037;-67
2022/01/29 11:02:48;;;;;;;;;;;3.60;99.90;;;;;;5033146;28;20477;-66
2022/01/29 11:05:15;;;;;;;0.10;0.10;;;3.60;99.90;;;;;;5032787;28;19990;-65
2022/01/29 11:07:51;;;;;;;1.45;0.95;;;3.60;99.90;;;;;;5032855;28;20116;-65
2022/01/29 11:10:18;;;;;;;0.10;0.10;;;3.60;99.90;;;;;;5032117;28;20025;-64
2022/01/29 11:12:47;;;;;;;0.88;0.88;;;3.70;99.90;;;;;;5032431;28;20041;-66
2022/01/29 11:15:17;;;;;;;1.27;1.17;;;3.70;99.90;;;;;;5031056;28;20033;-65
2022/01/29 11:17:45;;;;;;;0.30;0.25;;;3.70;99.90;;;;;;5032952;28;20108;-65
2022/01/29 11:20:12;;;;;;;1.17;0.93;;;3.80;99.90;;;;;;5014321;28;20022;-65
2022/01/29 11:22:43;;;;;;;0.20;0.20;;;3.90;99.90;;;;;;5021706;28;20129;-65
2022/01/29 11:25:21;;;;;;;1.75;1.65;;;4.00;99.90;;;;;;5014728;28;20431;-66
2022/01/29 11:27:47;;;;;;;0.82;0.82;;;4.10;99.90;;;;;;5032193;28;20052;-66
2022/01/29 11:30:14;;;;;;;0.60;0.60;;;4.10;99.90;;;;;;5032451;28;20467;-65
2022/01/29 11:32:42;;;;;;;1.52;1.42;;;4.10;99.90;;;;;;5047384;28;20049;-65
2022/01/29 11:35:15;;;;;;;2.17;1.75;;;4.10;99.90;;;;;;5032251;28;20034;-65
2022/01/29 11:38:08;;;;;;;0.10;0.10;;;4.20;99.90;;;;;;5024425;28;20087;-65
2022/01/29 11:40:35;;;;;;;0.63;0.63;;;4.20;99.90;;;;;;5011080;28;20512;-65
2022/01/29 11:43:14;;;;;;;0.03;0.03;;;4.10;99.90;;;;;;5011325;28;20030;-64
2022/01/29 11:45:51;;;;;;;1.17;1.13;;;4.10;99.90;;;;;;5010872;28;20034;-64
2022/01/29 11:48:30;;;;;;;3.00;1.80;;;4.10;99.90;;;;;;5010958;28;20141;-65
2022/01/29 11:51:02;;;;;;;2.92;0.90;;;4.10;99.90;;;;;;5012201;28;20487;-64
2022/01/29 11:53:50;;;;;;;0.63;0.63;;;4.30;99.90;;;;;;5011114;28;20474;-65
2022/01/29 11:56:41;;;;;;;0.05;0.05;;;4.30;99.90;;;;;;5011445;28;20045;-65
2022/01/29 11:59:19;;;;;;;1.45;1.35;;;4.30;99.90;;;;;;5011930;28;20117;-64
2022/01/29 12:02:23;;;;;;;1.02;1.00;;;4.30;99.90;;;;;;5010617;28;20124;-65
2022/01/29 12:04:53;;;;;;;0.10;0.10;;;4.40;99.90;;;;;;5018284;28;20029;-65
2022/01/29 12:07:32;;;;;;;0.33;0.33;;;4.40;99.90;;;;;;5046917;28;20375;-64
2022/01/29 12:10:02;;;;;;;0.13;0.13;;;4.40;99.90;;;;;;5045788;28;20041;-61
2022/01/29 12:12:32;;;;;;;1.58;1.48;;;4.50;99.90;;;;;;5031982;28;20051;-63
2022/01/29 12:15:18;;;;;;;0.80;0.80;;;4.50;99.90;;;;;;5031650;28;20473;-62
2022/01/29 12:17:50;;;;;;;0.10;0.10;;;4.40;99.90;;;;;;5031510;28;20064;-61
2022/01/29 12:20:22;;;;;;;0.32;0.32;;;4.50;99.90;;;;;;5030008;28;20100;-58
2022/01/29 12:22:50;;;;;;;1.65;1.55;;;4.50;99.90;;;;;;5031405;28;20032;-62
2022/01/29 12:25:28;;;;;;;0.40;0.40;;;4.50;99.90;;;;;;5031689;28;20087;-63
2022/01/29 12:27:58;;;;;;;0.10;0.10;;;4.50;99.90;;;;;;5030158;28;20030;-63
2022/01/29 12:30:33;;;;;;;0.10;0.10;;;4.60;99.90;;;;;;5031367;28;20491;-64
2022/01/29 12:33:00;;;;;;;0.20;0.20;;;4.60;99.90;;;;;;5030351;28;20048;-64
2022/01/29 12:35:50;;;;;;;0.10;0.10;;;4.50;99.90;;;;;;5031499;28;20064;-64
2022/01/29 12:38:23;;;;;;;0.17;0.17;;;4.60;99.90;;;;;;5035905;28;20095;-68
2022/01/29 12:40:59;;;;;;;0.10;0.10;;;4.80;99.90;;;;;;5035723;28;20407;-66
2022/01/29 12:43:29;;;;;;;0.10;0.10;;;4.90;99.90;;;;;;5035643;28;20033;-63
2022/01/29 12:46:17;;;;;;;0.00;0.00;;;4.80;99.90;;;;;;5035429;28;20065;-71
2022/01/29 12:49:06;;;;;;;0.50;0.50;;;4.80;99.90;;;;;;5050850;28;20053;-65
2022/01/29 12:51:34;;;;;;;0.52;0.52;;;4.70;99.90;;;;;;5035016;28;20033;-65
2022/01/29 12:54:04;;;;;;;0.73;0.73;;;4.60;99.90;;;;;;5035096;28;20490;-64
2022/01/29 12:56:33;;;;;;;0.20;0.20;;;4.60;99.90;;;;;;5034906;28;20048;-65
2022/01/29 12:59:01;;;;;;;0.13;0.13;;;4.50;99.90;;;;;;5050632;28;20486;-63
2022/01/29 13:01:27;;;;;;;0.05;0.05;;;4.60;99.90;;;;;;5049341;28;20040;-64
2022/01/29 13:04:02;;;;;;;0.08;0.08;;;4.70;99.90;;;;;;5049943;28;20033;-64
2022/01/29 13:06:28;;;;;;;0.90;0.70;;;4.60;99.90;;;;;;5049903;28;20041;-64
2022/01/29 13:09:09;;;;;;;1.45;1.35;;;4.60;99.90;;;;;;5050095;28;20053;-64
2022/01/29 13:11:36;;;;;;;0.20;0.20;;;4.50;99.90;;;;;;5047921;28;20034;-64
2022/01/29 13:14:15;;;;;;;1.48;1.38;;;4.60;99.90;;;;;;5034442;28;20080;-64
2022/01/29 13:16:41;;;;;;;1.10;0.93;;;4.60;99.90;;;;;;5034928;28;20033;-64
2022/01/29 13:19:08;;;;;;;0.00;0.00;;;4.60;99.90;;;;;;5035038;28;20068;-64